• Join FlightAware (Why Join?)
  • Login
  • US Flag 
09:03PM EDT


 

Airport Tracker/Info


-or-


 

Live Flight TrackerFlight Track Log ✈ SKW4665 ✈ 07-May-2013 ✈ KSLC - KIDA

Flight Track Log - Related Links

Times and Time Zones

All times are in EDT time to prevent confusion due to time zone crossing. See the SKW4665 flight status page for this flight to view local times or setup timezone preferences in your user account.

Time Position Orientation Groundspeed Altitude Reporting Facility
EDT Latitude Longitude Course Direction KTS MPH feet Rate Location/Type
12:12AM 40.7739 -111.9989 50° Northeast 176 203 5,000  Level Salt Lake Center
12:13AM 40.7517 -112.0178 213° Southwest 197 227 6,200 2,400 Climbing Salt Lake Center
12:14AM 40.7778 -112.0967 294° West 267 307 8,700 2,640 Climbing Salt Lake Center
12:14AM 40.8297 -112.1303 334° Northwest 279 321 11,000 2,400 Climbing Salt Lake Center
12:16AM 41.0303 -112.0863 37° Northeast  Level FlightAware Approximate
12:16AM 40.9422 -112.1250 North 325 374 13,700  Level Salt Lake Center
12:17AM 41.1128 -111.9704 50° Northeast  Level FlightAware Approximate
12:17AM 41.0431 -112.1242 360° North 356 410 16,200  Level Salt Lake Center
12:18AM 41.1478 -112.1222 North 372 428 18,800 2,400 Climbing Salt Lake Center
12:19AM 41.2500 -112.1197 North 365 420 21,200 1,860 Climbing Salt Lake Center
12:20AM 41.3589 -112.1178 North 389 448 22,600 1,560 Climbing Salt Lake Center
12:21AM 41.4725 -112.1153 North 407 468 24,400 1,620 Climbing Salt Lake Center
12:22AM 41.5850 -112.1133 North 406 467 26,000 780 Climbing Salt Lake Center
12:23AM 41.7036 -112.1106 North 425 489 26,000  Level Salt Lake Center
12:24AM 41.8261 -112.1078 North 439 505 26,000  Level Salt Lake Center
12:25AM 41.9528 -112.1033 North 453 521 26,000  Level Salt Lake Center
12:26AM 42.0814 -112.1019 360° North 461 531 26,000  Level Salt Lake Center
12:27AM 42.2072 -112.0978 North 455 524 26,000  Level Salt Lake Center
12:28AM 42.3308 -112.0958 North 445 512 26,000  Level Salt Lake Center
12:29AM 42.4806 -112.0928 North 447 514 26,000 -1,140 Level Salt Lake Center
12:30AM 42.6033 -112.0883 North 442 509 23,700 -2,700 Descending Salt Lake Center
12:31AM 42.7283 -112.0881 360° North 445 512 20,600 -2,880 Descending Salt Lake Center
12:32AM 42.8417 -112.0844 North 430 495 17,900 -2,640 Descending Salt Lake Center
12:33AM 42.9458 -112.0786 North 405 466 15,300 -2,760 Descending Salt Lake Center
12:34AM 43.0644 -112.0747 North 386 444 12,300 -1,920 Descending Salt Lake Center
12:35AM 43.1550 -112.0908 353° North 346 398 11,400 -1,380 Descending Salt Lake Center
12:36AM 43.2328 -112.1125 349° North 310 357 9,600 -1,860 Descending Salt Lake Center
12:37AM 43.3181 -112.1356 349° North 295 339 7,700 -1,920 Descending Salt Lake Center